createdAt,value
2019-03-21T00:01:07.417Z,11.53
2019-03-21T00:03:34.061Z,9.63
2019-03-21T00:06:01.239Z,10.23
2019-03-21T00:08:27.639Z,8.93
2019-03-21T00:11:42.104Z,10.97
2019-03-21T00:14:14.166Z,7.77
2019-03-21T00:16:40.589Z,9.10
2019-03-21T00:19:07.035Z,11.27
2019-03-21T00:21:33.369Z,8.97
2019-03-21T00:23:59.816Z,11.23
2019-03-21T00:26:26.340Z,12.73
2019-03-21T00:28:52.876Z,9.77
2019-03-21T00:31:19.297Z,11.50
2019-03-21T00:33:45.813Z,12.23
2019-03-21T00:36:12.440Z,11.33
2019-03-21T00:38:38.752Z,11.87
2019-03-21T00:41:05.392Z,13.93
2019-03-21T00:43:31.801Z,13.10
2019-03-21T00:45:58.227Z,11.53
2019-03-21T00:48:24.831Z,15.33
2019-03-21T00:50:51.421Z,10.47
2019-03-21T00:53:17.841Z,14.47
2019-03-21T00:55:51.224Z,13.50
2019-03-21T00:58:17.520Z,11.43
2019-03-21T01:00:52.136Z,11.33
2019-03-21T01:03:18.783Z,10.33
2019-03-21T01:05:45.192Z,10.43
2019-03-21T01:08:11.845Z,9.50
2019-03-21T01:10:38.434Z,15.13
2019-03-21T01:13:04.963Z,11.50
2019-03-21T01:15:31.461Z,12.53
2019-03-21T01:17:57.887Z,7.73
2019-03-21T01:20:24.404Z,9.33
2019-03-21T01:22:51.472Z,8.30
2019-03-21T01:25:44.147Z,9.70
2019-03-21T01:28:10.570Z,16.90
2019-03-21T01:30:36.975Z,9.97
2019-03-21T01:33:03.650Z,9.93
2019-03-21T01:35:30.281Z,13.13
2019-03-21T01:37:56.826Z,14.40
2019-03-21T01:40:37.917Z,12.60
2019-03-21T01:43:04.396Z,11.23
2019-03-21T01:45:30.928Z,9.57
2019-03-21T01:47:57.606Z,12.53
2019-03-21T01:50:29.330Z,10.33
2019-03-21T01:52:55.870Z,11.00
2019-03-21T01:55:22.279Z,14.53
2019-03-21T01:57:49.022Z,11.97
2019-03-21T02:00:20.670Z,10.10
2019-03-21T02:02:49.896Z,12.33
2019-03-21T02:05:16.512Z,13.40
2019-03-21T02:07:43.031Z,9.37
2019-03-21T02:10:15.507Z,11.53
2019-03-21T02:12:42.022Z,13.30
2019-03-21T02:15:12.017Z,13.53
2019-03-21T02:17:38.614Z,12.80
2019-03-21T02:20:10.150Z,10.93
2019-03-21T02:22:36.537Z,13.63
2019-03-21T02:25:11.570Z,13.93
2019-03-21T02:27:37.896Z,13.30
2019-03-21T02:30:13.102Z,10.23
2019-03-21T02:32:39.699Z,10.83
2019-03-21T02:35:06.965Z,10.33
2019-03-21T02:37:33.253Z,12.23
2019-03-21T02:40:00.492Z,14.60
2019-03-21T02:42:27.518Z,12.37
2019-03-21T02:45:07.658Z,12.63
2019-03-21T02:47:22.360Z,13.17
2019-03-21T02:49:48.777Z,11.37
2019-03-21T02:52:15.068Z,12.07
2019-03-21T02:54:41.606Z,12.17
2019-03-21T02:57:08.086Z,12.40
2019-03-21T02:59:34.536Z,12.10
2019-03-21T03:02:01.055Z,13.17
2019-03-21T03:04:27.478Z,12.63
2019-03-21T03:06:54.003Z,9.10
2019-03-21T03:09:20.579Z,13.23
2019-03-21T03:11:47.188Z,12.07
2019-03-21T03:14:13.676Z,14.43
2019-03-21T03:16:40.098Z,10.73
2019-03-21T03:19:06.486Z,17.50
2019-03-21T03:21:32.894Z,10.50
2019-03-21T03:23:59.301Z,13.13
2019-03-21T03:26:25.611Z,11.10
2019-03-21T03:28:52.009Z,14.03
2019-03-21T03:31:18.312Z,10.40
2019-03-21T03:33:44.710Z,14.60
2019-03-21T03:36:13.848Z,11.57
2019-03-21T03:38:40.210Z,11.60
2019-03-21T03:41:11.771Z,13.40
2019-03-21T03:43:38.162Z,13.60
2019-03-21T03:46:04.679Z,11.47
2019-03-21T03:48:31.062Z,13.60
2019-03-21T03:50:57.707Z,10.33
2019-03-21T03:53:24.209Z,11.00
2019-03-21T03:55:50.833Z,10.27
2019-03-21T03:58:31.238Z,11.53
2019-03-21T04:00:57.942Z,12.23
2019-03-21T04:03:26.648Z,16.33
2019-03-21T04:05:53.252Z,12.23
2019-03-21T04:08:19.818Z,11.97
2019-03-21T04:10:51.903Z,14.97
2019-03-21T04:13:18.219Z,13.17
2019-03-21T04:15:52.788Z,13.00
2019-03-21T04:18:14.736Z,14.13
2019-03-21T04:20:58.120Z,14.93
2019-03-21T04:23:24.889Z,13.73
2019-03-21T04:26:02.758Z,16.07
2019-03-21T04:28:29.362Z,12.70
2019-03-21T04:30:55.831Z,14.37
2019-03-21T04:33:23.175Z,15.03
2019-03-21T04:35:49.831Z,14.00
2019-03-21T04:38:16.335Z,11.60
2019-03-21T04:40:42.867Z,13.33
2019-03-21T04:43:09.295Z,13.37
2019-03-21T04:45:35.676Z,16.97
2019-03-21T04:48:02.367Z,13.87
2019-03-21T04:50:37.442Z,16.13
2019-03-21T04:53:04.151Z,14.10
2019-03-21T04:55:30.645Z,12.30
2019-03-21T04:57:57.331Z,13.83
2019-03-21T05:00:35.138Z,14.47
2019-03-21T05:03:19.027Z,13.63
2019-03-21T05:05:45.440Z,14.10
2019-03-21T05:08:12.001Z,17.63
2019-03-21T05:10:38.517Z,12.93
2019-03-21T05:13:04.990Z,13.73
2019-03-21T05:15:39.065Z,13.23
2019-03-21T05:18:13.576Z,14.43
2019-03-21T05:20:40.039Z,16.40
2019-03-21T05:23:06.421Z,18.57
2019-03-21T05:25:33.036Z,16.10
2019-03-21T05:27:59.442Z,13.20
2019-03-21T05:30:46.883Z,14.37
2019-03-21T05:33:13.285Z,14.60
2019-03-21T05:35:39.731Z,14.63
2019-03-21T05:38:06.221Z,15.23
2019-03-21T05:40:32.747Z,17.93
2019-03-21T05:43:10.522Z,17.23
2019-03-21T05:45:37.187Z,20.17
2019-03-21T05:48:03.717Z,21.37
2019-03-21T05:50:30.230Z,18.20
2019-03-21T05:52:56.804Z,19.33
2019-03-21T05:55:23.327Z,14.77
2019-03-21T05:57:49.770Z,16.23
2019-03-21T06:00:34.692Z,20.53
2019-03-21T06:03:01.259Z,17.73
2019-03-21T06:05:29.136Z,17.83
2019-03-21T06:08:12.896Z,23.70
2019-03-21T06:10:39.322Z,25.03
2019-03-21T06:13:05.844Z,18.20
2019-03-21T06:15:39.197Z,23.20
2019-03-21T06:18:13.967Z,16.77
2019-03-21T06:21:17.496Z,19.67
2019-03-21T06:24:10.059Z,25.27
2019-03-21T06:26:59.182Z,20.20
2019-03-21T06:29:25.607Z,18.53
2019-03-21T06:31:52.050Z,20.83
2019-03-21T06:34:18.427Z,21.27
2019-03-21T06:36:44.881Z,23.97
2019-03-21T06:39:11.482Z,23.20
2019-03-21T06:41:37.820Z,20.83
2019-03-21T06:44:04.460Z,27.77
2019-03-21T06:46:31.092Z,38.37
2019-03-21T06:48:57.565Z,147.23
2019-03-21T06:51:24.079Z,89.37
2019-03-21T06:53:50.497Z,32.23
2019-03-21T06:56:16.818Z,30.23
2019-03-21T06:58:43.217Z,26.03
2019-03-21T07:01:09.545Z,24.13
2019-03-21T07:03:36.116Z,25.23
2019-03-21T07:06:02.826Z,28.23
2019-03-21T07:08:29.382Z,30.67
2019-03-21T07:10:58.272Z,24.67
2019-03-21T07:13:24.362Z,25.77
2019-03-21T07:15:50.812Z,27.20
2019-03-21T07:18:17.372Z,28.77
2019-03-21T07:20:43.677Z,28.50
2019-03-21T07:23:10.234Z,27.27
2019-03-21T07:25:37.091Z,36.00
2019-03-21T07:28:03.737Z,49.80
2019-03-21T07:30:30.226Z,42.07
2019-03-21T07:32:56.571Z,36.53
2019-03-21T07:35:23.018Z,31.97
2019-03-21T07:37:49.766Z,30.33
2019-03-21T07:40:16.194Z,30.93
2019-03-21T07:42:42.541Z,31.47
2019-03-21T07:45:10.967Z,35.47
2019-03-21T07:47:37.640Z,29.57
2019-03-21T07:50:12.923Z,29.97
2019-03-21T07:52:39.561Z,26.90
2019-03-21T07:55:08.336Z,30.20
2019-03-21T07:57:34.834Z,38.70
2019-03-21T08:00:05.581Z,31.87
2019-03-21T08:02:32.098Z,28.73
2019-03-21T08:04:58.536Z,26.47
2019-03-21T08:07:27.292Z,30.70
2019-03-21T08:09:54.042Z,32.67
2019-03-21T08:12:20.647Z,28.30
2019-03-21T08:14:47.292Z,31.67
2019-03-21T08:17:13.703Z,27.90
2019-03-21T08:19:40.234Z,29.80
2019-03-21T08:22:06.728Z,25.47
2019-03-21T08:24:33.229Z,27.40
2019-03-21T08:27:00.146Z,32.57
2019-03-21T08:29:26.641Z,29.53
2019-03-21T08:31:53.553Z,29.67
2019-03-21T08:34:19.966Z,30.70
2019-03-21T08:36:46.561Z,28.20
2019-03-21T08:39:13.176Z,26.90
2019-03-21T08:41:39.743Z,29.20
2019-03-21T08:44:06.377Z,31.87
2019-03-21T08:46:32.744Z,27.07
2019-03-21T08:48:59.323Z,30.70
2019-03-21T08:51:25.673Z,28.93
2019-03-21T08:53:52.173Z,29.97
2019-03-21T08:56:18.819Z,28.53
2019-03-21T08:58:45.243Z,27.73
2019-03-21T09:01:11.909Z,27.83
2019-03-21T09:03:38.461Z,31.70
2019-03-21T09:06:05.136Z,32.23
2019-03-21T09:08:31.711Z,34.10
2019-03-21T09:10:58.262Z,28.53
2019-03-21T09:13:24.804Z,30.17
2019-03-21T09:15:51.191Z,31.20
2019-03-21T09:18:17.716Z,29.13
2019-03-21T09:20:44.616Z,26.53
2019-03-21T09:23:11.034Z,27.10
2019-03-21T09:25:37.421Z,27.17
2019-03-21T09:28:03.953Z,30.83
2019-03-21T09:30:30.487Z,25.97
2019-03-21T09:32:57.054Z,27.23
2019-03-21T09:35:23.668Z,26.03
2019-03-21T09:37:50.115Z,21.53
2019-03-21T09:40:16.819Z,23.03
2019-03-21T09:42:43.161Z,24.37
2019-03-21T09:45:11.501Z,22.70
2019-03-21T09:47:37.953Z,22.27
2019-03-21T09:50:06.870Z,21.77
2019-03-21T09:52:33.403Z,23.47
2019-03-21T09:54:59.923Z,22.83
2019-03-21T09:57:26.383Z,23.87
2019-03-21T09:59:52.776Z,23.57
2019-03-21T10:02:19.401Z,23.30
2019-03-21T10:04:46.030Z,20.73
2019-03-21T10:07:12.532Z,25.80
2019-03-21T10:09:38.952Z,21.40
2019-03-21T10:12:05.758Z,28.13
2019-03-21T10:14:32.382Z,21.70
2019-03-21T10:16:58.782Z,20.70
2019-03-21T10:19:25.257Z,18.23
2019-03-21T10:21:51.881Z,13.37
2019-03-21T10:24:18.317Z,16.53
2019-03-21T10:26:44.736Z,13.90
2019-03-21T10:29:11.053Z,13.07
2019-03-21T10:31:37.448Z,10.60
2019-03-21T10:34:03.997Z,15.20
2019-03-21T10:36:30.449Z,13.53
2019-03-21T10:38:57.809Z,10.53
2019-03-21T10:41:24.350Z,14.37
2019-03-21T10:43:50.838Z,15.90
2019-03-21T10:46:17.491Z,16.17
2019-03-21T10:48:44.152Z,11.13
2019-03-21T10:51:10.567Z,11.00
2019-03-21T10:53:37.096Z,12.57
2019-03-21T10:56:03.578Z,13.67
2019-03-21T10:58:30.145Z,12.57
2019-03-21T11:00:56.937Z,11.70
2019-03-21T11:03:23.358Z,10.50
2019-03-21T11:05:50.159Z,13.50
2019-03-21T11:08:16.582Z,9.67
2019-03-21T11:10:43.043Z,9.47
2019-03-21T11:13:09.663Z,10.60
2019-03-21T11:15:36.393Z,9.27
2019-03-21T11:18:03.634Z,13.13
2019-03-21T11:20:35.525Z,12.70
2019-03-21T11:23:03.535Z,11.23
2019-03-21T11:25:30.232Z,9.40
2019-03-21T11:27:56.709Z,9.73
2019-03-21T11:30:41.528Z,9.10
2019-03-21T11:33:08.109Z,13.80
2019-03-21T11:35:35.038Z,8.93
2019-03-21T11:38:02.109Z,11.30
2019-03-21T11:40:28.703Z,10.27
2019-03-21T11:42:56.115Z,9.70
2019-03-21T11:45:22.643Z,10.90
2019-03-21T11:47:49.204Z,12.27
2019-03-21T11:50:15.883Z,9.93
2019-03-21T11:52:42.444Z,11.17
2019-03-21T11:55:09.128Z,10.13
2019-03-21T11:57:35.689Z,12.77
2019-03-21T12:00:06.437Z,10.37
2019-03-21T12:02:33.067Z,11.73
2019-03-21T12:04:59.456Z,8.87
2019-03-21T12:07:25.981Z,10.33
2019-03-21T12:09:52.514Z,9.87
2019-03-21T12:12:19.014Z,9.13
2019-03-21T12:14:45.758Z,9.90
2019-03-21T12:17:13.020Z,10.67
2019-03-21T12:19:39.577Z,37.27
2019-03-21T12:22:05.984Z,9.90
2019-03-21T12:24:32.444Z,9.93
2019-03-21T12:26:59.059Z,8.37
2019-03-21T12:29:25.759Z,10.10
2019-03-21T12:31:52.283Z,11.20
2019-03-21T12:34:19.071Z,12.90
2019-03-21T12:36:45.509Z,9.40
2019-03-21T12:39:12.239Z,9.87
2019-03-21T12:41:38.745Z,9.83
2019-03-21T12:44:05.407Z,10.43
2019-03-21T12:46:31.833Z,10.57
2019-03-21T12:48:58.406Z,8.60
2019-03-21T12:51:25.052Z,12.07
2019-03-21T12:53:51.470Z,11.80
2019-03-21T12:56:18.096Z,9.53
2019-03-21T12:58:44.575Z,12.47
2019-03-21T13:01:11.298Z,10.13
2019-03-21T13:03:37.821Z,13.43
2019-03-21T13:06:04.382Z,12.30
2019-03-21T13:08:33.993Z,8.60
2019-03-21T13:11:00.981Z,9.83
2019-03-21T13:13:27.782Z,10.27
2019-03-21T13:15:54.354Z,14.47
2019-03-21T13:18:20.877Z,11.13
2019-03-21T13:20:47.418Z,8.03
2019-03-21T13:23:14.083Z,9.83
2019-03-21T13:25:40.786Z,11.87
2019-03-21T13:28:07.391Z,11.20
2019-03-21T13:30:34.362Z,10.33
2019-03-21T13:33:00.868Z,10.00
2019-03-21T13:35:32.570Z,12.20
2019-03-21T13:37:55.903Z,10.10
2019-03-21T13:40:22.547Z,11.30
2019-03-21T13:42:49.149Z,12.50
2019-03-21T13:45:15.943Z,11.80
2019-03-21T13:47:42.769Z,43.80
2019-03-21T13:50:10.333Z,23.37
2019-03-21T13:52:37.109Z,9.43
2019-03-21T13:55:06.719Z,10.40
2019-03-21T13:57:33.263Z,11.80
2019-03-21T14:00:00.091Z,12.50
2019-03-21T14:02:26.793Z,12.83
2019-03-21T14:04:53.218Z,14.83
2019-03-21T14:07:19.667Z,9.37
2019-03-21T14:09:46.276Z,11.93
2019-03-21T14:12:12.738Z,12.37
2019-03-21T14:14:39.132Z,12.43
2019-03-21T14:17:05.579Z,9.87
2019-03-21T14:19:32.244Z,9.37
2019-03-21T14:21:58.947Z,9.07
2019-03-21T14:24:25.549Z,8.83
2019-03-21T14:26:52.244Z,8.40
2019-03-21T14:29:18.733Z,10.17
2019-03-21T14:31:45.391Z,7.90
2019-03-21T14:34:12.003Z,11.07
2019-03-21T14:36:38.577Z,10.33
2019-03-21T14:39:06.398Z,9.33
2019-03-21T14:41:33.023Z,9.90
2019-03-21T14:43:59.758Z,9.57
2019-03-21T14:46:26.318Z,9.93
2019-03-21T14:48:52.808Z,7.27
2019-03-21T14:51:19.411Z,9.20
2019-03-21T14:53:45.964Z,9.20
2019-03-21T14:56:12.596Z,10.10
2019-03-21T14:58:39.071Z,12.00
2019-03-21T15:01:05.682Z,8.50
2019-03-21T15:03:32.310Z,10.13
2019-03-21T15:05:58.914Z,8.50
2019-03-21T15:08:25.583Z,10.80
2019-03-21T15:10:52.217Z,10.37
2019-03-21T15:13:18.766Z,15.60
2019-03-21T15:15:45.344Z,6.57
2019-03-21T15:18:12.106Z,73.07
2019-03-21T15:20:38.503Z,15.10
2019-03-21T15:23:05.014Z,10.50
2019-03-21T15:25:31.783Z,9.67
2019-03-21T15:27:58.384Z,9.77
2019-03-21T15:30:25.089Z,8.40
2019-03-21T15:32:51.710Z,10.60
2019-03-21T15:35:19.353Z,10.47
2019-03-21T15:37:46.035Z,10.50
2019-03-21T15:40:14.694Z,11.73
2019-03-21T15:42:41.459Z,12.17
2019-03-21T15:45:22.387Z,10.30
2019-03-21T15:47:44.543Z,12.10
2019-03-21T15:50:28.275Z,9.73
2019-03-21T15:52:55.785Z,9.43
2019-03-21T15:55:22.477Z,9.83
2019-03-21T15:57:48.894Z,12.27
2019-03-21T16:00:21.003Z,11.87
2019-03-21T16:02:47.564Z,10.63
2019-03-21T16:05:14.173Z,19.50
2019-03-21T16:07:40.727Z,20.37
2019-03-21T16:10:07.418Z,8.10
2019-03-21T16:12:33.819Z,8.90
2019-03-21T16:15:01.935Z,13.00
2019-03-21T16:17:28.627Z,11.27
2019-03-21T16:19:55.145Z,12.43
2019-03-21T16:22:21.693Z,12.53
2019-03-21T16:24:48.272Z,10.70
2019-03-21T16:27:14.811Z,10.53
2019-03-21T16:29:41.519Z,12.43
2019-03-21T16:32:08.142Z,14.00
2019-03-21T16:34:34.725Z,15.33
2019-03-21T16:37:01.297Z,15.23
2019-03-21T16:39:28.116Z,11.70
2019-03-21T16:41:54.658Z,13.80
2019-03-21T16:44:21.225Z,26.73
2019-03-21T16:46:47.997Z,17.13
2019-03-21T16:49:14.624Z,13.67
2019-03-21T16:51:41.472Z,12.53
2019-03-21T16:54:17.012Z,12.57
2019-03-21T16:56:36.728Z,11.87
2019-03-21T16:59:03.361Z,5.23
2019-03-21T17:01:30.081Z,9.83
2019-03-21T17:03:56.757Z,10.07
2019-03-21T17:06:23.353Z,11.20
2019-03-21T17:08:50.012Z,8.00
2019-03-21T17:11:16.632Z,7.33
2019-03-21T17:13:43.438Z,9.40
2019-03-21T17:16:09.976Z,10.03
2019-03-21T17:18:36.673Z,9.20
2019-03-21T17:21:03.361Z,13.50
2019-03-21T17:23:30.173Z,9.57
2019-03-21T17:25:56.838Z,13.47
2019-03-21T17:28:23.768Z,11.07
2019-03-21T17:30:50.544Z,12.10
2019-03-21T17:33:17.126Z,13.03
2019-03-21T17:35:43.687Z,12.43
2019-03-21T17:38:10.344Z,10.53
2019-03-21T17:40:37.087Z,9.23
2019-03-21T17:43:03.761Z,9.67
2019-03-21T17:45:30.517Z,12.07
2019-03-21T17:47:57.244Z,11.07
2019-03-21T17:50:23.963Z,13.73
2019-03-21T17:52:50.727Z,24.63
2019-03-21T17:55:17.449Z,41.40
2019-03-21T17:57:44.244Z,39.33
2019-03-21T18:00:21.322Z,17.23
2019-03-21T18:02:47.996Z,14.07
2019-03-21T18:05:14.855Z,15.40
2019-03-21T18:07:41.499Z,11.00
2019-03-21T18:10:28.950Z,15.90
2019-03-21T18:12:56.193Z,12.27
2019-03-21T18:15:23.164Z,13.67
2019-03-21T18:17:49.851Z,12.90
2019-03-21T18:20:16.469Z,13.07
2019-03-21T18:22:45.585Z,13.73
2019-03-21T18:25:11.950Z,16.53
2019-03-21T18:27:38.624Z,16.17
2019-03-21T18:30:09.559Z,16.87
2019-03-21T18:32:36.096Z,60.30
2019-03-21T18:35:07.061Z,39.30
2019-03-21T18:37:33.806Z,21.93
2019-03-21T18:40:00.884Z,18.33
2019-03-21T18:42:27.672Z,16.70
2019-03-21T18:44:54.240Z,23.47
2019-03-21T18:47:21.128Z,13.97
2019-03-21T18:49:47.941Z,20.10
2019-03-21T18:52:14.812Z,15.90
2019-03-21T18:54:41.504Z,23.07
2019-03-21T18:57:08.209Z,13.83
2019-03-21T18:59:34.867Z,18.40
2019-03-21T19:02:01.634Z,14.90
2019-03-21T19:04:28.402Z,18.40
2019-03-21T19:06:55.059Z,15.87
2019-03-21T19:09:22.126Z,15.90
2019-03-21T19:11:48.960Z,17.73
2019-03-21T19:14:15.585Z,19.17
2019-03-21T19:16:42.403Z,15.63
2019-03-21T19:19:09.051Z,15.87
2019-03-21T19:21:35.625Z,15.33
2019-03-21T19:24:02.414Z,14.10
2019-03-21T19:26:29.028Z,13.30
2019-03-21T19:28:55.937Z,13.07
2019-03-21T19:31:22.688Z,15.37
2019-03-21T19:33:49.429Z,15.53
2019-03-21T19:36:16.302Z,14.17
2019-03-21T19:38:43.215Z,18.20
2019-03-21T19:41:10.087Z,14.70
2019-03-21T19:43:36.885Z,13.40
2019-03-21T19:46:04.212Z,15.67
2019-03-21T19:48:30.890Z,20.33
2019-03-21T19:50:57.748Z,15.40
2019-03-21T19:53:24.646Z,23.43
2019-03-21T19:55:52.622Z,18.77
2019-03-21T19:58:19.374Z,16.00
2019-03-21T20:00:46.032Z,14.60
2019-03-21T20:03:12.903Z,63.73
2019-03-21T20:05:39.901Z,109.00
2019-03-21T20:08:06.789Z,39.17
2019-03-21T20:10:33.651Z,17.67
2019-03-21T20:13:00.456Z,18.23
2019-03-21T20:15:27.278Z,16.47
2019-03-21T20:17:54.214Z,16.87
2019-03-21T20:20:23.094Z,17.30
2019-03-21T20:22:49.817Z,18.90
2019-03-21T20:25:16.615Z,18.90
2019-03-21T20:27:43.722Z,17.37
2019-03-21T20:30:21.016Z,16.63
2019-03-21T20:32:47.900Z,20.00
2019-03-21T20:35:14.919Z,21.03
2019-03-21T20:37:41.980Z,18.43
2019-03-21T20:40:15.526Z,16.93
2019-03-21T20:42:42.551Z,14.67
2019-03-21T20:45:15.690Z,16.30
2019-03-21T20:47:42.480Z,16.13
2019-03-21T20:50:10.329Z,16.03
2019-03-21T20:52:36.918Z,18.63
2019-03-21T20:55:06.047Z,16.10
2019-03-21T20:57:32.895Z,22.60
2019-03-21T20:59:59.697Z,19.60
2019-03-21T21:02:26.979Z,16.17
2019-03-21T21:04:53.798Z,17.13
2019-03-21T21:07:20.520Z,18.60
2019-03-21T21:09:47.187Z,17.80
2019-03-21T21:12:14.016Z,17.17
2019-03-21T21:14:40.828Z,19.63
2019-03-21T21:17:07.479Z,26.10
2019-03-21T21:19:34.375Z,113.70
2019-03-21T21:22:01.006Z,46.10
2019-03-21T21:24:27.586Z,20.60
2019-03-21T21:26:54.305Z,16.87
2019-03-21T21:29:20.950Z,17.07
2019-03-21T21:31:47.649Z,15.33
2019-03-21T21:34:14.346Z,21.20
2019-03-21T21:36:41.122Z,19.87
2019-03-21T21:39:07.788Z,21.83
2019-03-21T21:41:34.570Z,18.83
2019-03-21T21:44:01.236Z,15.97
2019-03-21T21:46:28.084Z,22.80
2019-03-21T21:48:54.695Z,18.87
2019-03-21T21:51:21.088Z,17.80
2019-03-21T21:53:47.856Z,23.50
2019-03-21T21:56:17.902Z,18.73
2019-03-21T21:58:43.305Z,19.60
2019-03-21T22:01:10.179Z,19.47
2019-03-21T22:03:36.876Z,57.30
2019-03-21T22:06:03.549Z,86.00
2019-03-21T22:08:30.260Z,39.07
2019-03-21T22:10:56.994Z,25.10
2019-03-21T22:13:23.411Z,25.10
2019-03-21T22:15:49.883Z,24.03
2019-03-21T22:18:16.630Z,23.43
2019-03-21T22:20:43.019Z,21.33
2019-03-21T22:23:09.654Z,21.73
2019-03-21T22:25:36.181Z,22.10
2019-03-21T22:28:02.930Z,22.73
2019-03-21T22:30:29.459Z,18.60
2019-03-21T22:32:56.090Z,21.83
2019-03-21T22:35:22.745Z,21.73
2019-03-21T22:37:49.425Z,26.57
2019-03-21T22:40:18.358Z,24.23
2019-03-21T22:42:45.030Z,21.30
2019-03-21T22:45:14.733Z,19.37
2019-03-21T22:47:41.391Z,19.60
2019-03-21T22:50:14.915Z,20.70
2019-03-21T22:52:41.829Z,21.63
2019-03-21T22:55:09.079Z,22.23
2019-03-21T22:57:35.616Z,21.50
2019-03-21T23:00:07.349Z,21.97
2019-03-21T23:02:33.960Z,17.10
2019-03-21T23:05:00.586Z,18.10
2019-03-21T23:07:27.025Z,18.50
2019-03-21T23:09:53.579Z,19.63
2019-03-21T23:12:19.989Z,20.57
2019-03-21T23:14:46.744Z,19.87
2019-03-21T23:17:13.264Z,15.93
2019-03-21T23:19:40.033Z,16.30
2019-03-21T23:22:06.539Z,17.50
2019-03-21T23:24:32.979Z,22.73
2019-03-21T23:26:59.816Z,16.67
2019-03-21T23:29:26.493Z,16.97
2019-03-21T23:31:52.883Z,15.53
2019-03-21T23:34:19.291Z,17.47
2019-03-21T23:36:45.854Z,17.00
2019-03-21T23:39:12.444Z,18.03
2019-03-21T23:41:39.119Z,19.80
2019-03-21T23:44:05.659Z,21.43
2019-03-21T23:46:32.290Z,20.70
2019-03-21T23:48:58.804Z,25.00
2019-03-21T23:51:25.494Z,19.53
2019-03-21T23:53:51.892Z,21.60
2019-03-21T23:56:18.599Z,18.73
2019-03-21T23:58:45.102Z,19.60
